Upper Tulpehocken, Pennsylvania
Current Conditions -  °F | °C
As of 1:54 PM on Monday 20 Oct 2014 (Local Time) from KRDG Reporting Station
Clear Clear  
Wind Chill: 60°   Ceiling: Unl
Heat Index: 60°   Visibility: 10mi
Dew Point: 39°   Wind: 13mph
Humidity: 46%   Direction: 210°SSW
Pressure: 30"   Gusts: NA
Location:  40.4925°N, 76.1835°W
Report Text: KRDG 201754Z 21011KT 10SM CLR 16/04 A3000 RMK AO2 SLP165 T01560039 10156 20022 58032
Loading
Personal Weather Stations






























Interactive Weather Map
Tropical Storm Tracking
New forecast layout! Learn more

10-Day Weather Forecast

Advertisements
Track Severe Weather on mobile